Time;durP1;ratioP1;P1;durP2;ratioP2;P2;SDS_P1;SDS_P2;PMS_P1;PMS_P2;Temp;Humidity;BMP_temperature;BMP_pressure;BME280_temperature;BME280_humidity;BME280_pressure;Samples;Min_cycle;Max_cycle;Signal;HPM_P1;HPM_P2
2022/10/08 00:01:07;;;;;;;7.83;6.00;;;;;;;5.49;100.00;100955.53;5013178;28;20913;-73
2022/10/08 00:03:36;;;;;;;9.60;6.67;;;;;;;5.49;100.00;100958.97;5017927;28;20597;-73
2022/10/08 00:06:04;;;;;;;8.10;6.30;;;;;;;5.60;100.00;100956.41;5015066;28;20243;-73
2022/10/08 00:08:33;;;;;;;9.33;7.03;;;;;;;5.55;100.00;100952.94;5016920;28;20200;-73
2022/10/08 00:11:01;;;;;;;8.43;6.23;;;;;;;5.56;100.00;100953.78;5017204;28;20270;-73
2022/10/08 00:13:39;;;;;;;9.67;6.87;;;;;;;5.56;100.00;100956.38;5000049;28;20841;-73
2022/10/08 00:16:06;;;;;;;8.50;5.97;;;;;;;5.53;100.00;100952.09;5009881;28;20234;-73
2022/10/08 00:18:33;;;;;;;9.23;6.80;;;;;;;5.48;100.00;100951.22;5019437;28;20665;-73
2022/10/08 00:21:04;;;;;;;11.90;7.63;;;;;;;5.51;100.00;100951.22;5021759;28;20232;-73
2022/10/08 00:23:33;;;;;;;9.40;6.63;;;;;;;5.51;100.00;100951.22;5018364;28;20392;-73
2022/10/08 00:26:03;;;;;;;8.60;6.90;;;;;;;5.50;100.00;100949.50;5014474;28;20787;-73
2022/10/08 00:28:30;;;;;;;8.07;6.13;;;;;;;5.53;100.00;100944.31;5017681;28;20207;-73
2022/10/08 00:30:57;;;;;;;6.97;5.27;;;;;;;5.51;100.00;100943.47;5013902;28;20230;-73
2022/10/08 00:33:24;;;;;;;8.30;6.37;;;;;;;5.48;100.00;100944.31;5015882;28;20199;-73
2022/10/08 00:35:52;;;;;;;9.50;6.33;;;;;;;5.47;100.00;100944.31;5017084;28;20617;-73
2022/10/08 00:38:19;;;;;;;9.47;6.37;;;;;;;5.45;100.00;100943.47;5017694;28;20615;-73
2022/10/08 00:40:45;;;;;;;8.97;6.47;;;;;;;5.50;100.00;100941.72;5014064;28;20222;-73
2022/10/08 00:43:14;;;;;;;10.30;7.07;;;;;;;5.58;100.00;100945.19;5004502;28;20211;-73
2022/10/08 00:45:43;;;;;;;8.47;5.77;;;;;;;5.54;100.00;100935.72;5013231;28;20251;-73
2022/10/08 00:48:12;;;;;;;9.03;6.33;;;;;;;5.57;100.00;100943.44;4999017;28;20204;-73
2022/10/08 00:50:39;;;;;;;10.83;7.00;;;;;;;5.60;100.00;100938.28;5000496;28;20669;-73
2022/10/08 00:53:08;;;;;;;9.57;6.97;;;;;;;5.65;100.00;100930.53;5014406;28;20200;-73
2022/10/08 00:55:37;;;;;;;11.73;6.93;;;;;;;5.64;100.00;100931.38;5016768;28;20203;-73
2022/10/08 00:58:13;;;;;;;10.80;6.77;;;;;;;5.66;100.00;100921.88;5015708;28;20672;-73
2022/10/08 01:00:39;;;;;;;8.60;6.83;;;;;;;5.65;100.00;100922.78;5017948;28;20203;-73
2022/10/08 01:03:07;;;;;;;9.20;5.57;;;;;;;5.65;100.00;100921.03;5021483;28;20545;-73
2022/10/08 01:05:42;;;;;;;8.83;6.00;;;;;;;5.60;100.00;100908.97;5015536;28;20724;-73
2022/10/08 01:08:16;;;;;;;8.87;5.90;;;;;;;5.69;100.00;100916.72;5002277;28;20199;-73
2022/10/08 01:10:50;;;;;;;10.33;7.10;;;;;;;5.72;100.00;100900.31;5015178;28;20584;-73
2022/10/08 01:13:28;;;;;;;12.67;7.10;;;;;;;5.66;100.00;100903.78;5020516;28;20198;-73
2022/10/08 01:16:01;;;;;;;12.37;6.87;;;;;;;5.77;100.00;100904.66;5020574;28;20211;-73
2022/10/08 01:18:36;;;;;;;12.43;7.60;;;;;;;5.81;100.00;100905.50;5016581;28;20196;-73
2022/10/08 01:21:08;;;;;;;10.43;6.30;;;;;;;5.82;100.00;100900.31;5017554;28;20637;-73
2022/10/08 01:23:59;;;;;;;9.57;6.43;;;;;;;5.80;100.00;100903.75;5017972;28;20309;-73
2022/10/08 01:26:44;;;;;;;9.17;6.00;;;;;;;5.77;100.00;100902.06;5015560;28;20208;-73
2022/10/08 01:29:16;;;;;;;9.60;5.63;;;;;;;5.81;100.00;100901.16;5014339;28;20200;-73
2022/10/08 01:31:46;;;;;;;12.00;6.80;;;;;;;5.85;100.00;100899.44;5002001;28;20220;-73
2022/10/08 01:34:18;;;;;;;10.60;6.90;;;;;;;5.78;100.00;100900.31;5019091;28;20196;-73
2022/10/08 01:36:48;;;;;;;13.33;6.30;;;;;;;5.74;100.00;100894.28;5013305;28;20207;-73
2022/10/08 01:39:18;;;;;;;9.00;6.70;;;;;;;5.73;100.00;100894.28;5016635;28;20200;-73
2022/10/08 01:41:51;;;;;;;9.67;6.57;;;;;;;5.68;100.00;100895.16;5015179;28;20224;-73
2022/10/08 01:44:23;;;;;;;9.83;7.57;;;;;;;5.75;100.00;100888.25;5016833;28;20716;-73
2022/10/08 01:46:52;;;;;;;9.00;6.30;;;;;;;5.64;100.00;100887.41;5012251;28;20542;-73
2022/10/08 01:49:24;;;;;;;9.40;7.00;;;;;;;5.68;100.00;100882.22;4994651;28;20208;-73
2022/10/08 01:51:53;;;;;;;12.43;6.60;;;;;;;5.71;100.00;100880.50;5014397;28;20559;-73
2022/10/08 01:54:24;;;;;;;11.20;6.63;;;;;;;5.67;100.00;100871.88;5012358;28;20662;-73
2022/10/08 01:56:52;;;;;;;7.53;5.53;;;;;;;5.62;100.00;100864.13;5016592;28;20835;-73
2022/10/08 01:59:25;;;;;;;8.93;6.17;;;;;;;5.77;100.00;100870.13;5017350;28;20247;-73
2022/10/08 02:01:58;;;;;;;9.57;5.93;;;;;;;5.74;100.00;100871.00;5016590;28;20789;-73
2022/10/08 02:04:33;;;;;;;9.77;5.87;;;;;;;5.72;100.00;100864.09;5004056;28;20652;-73
2022/10/08 02:07:02;;;;;;;10.50;5.80;;;;;;;5.72;100.00;100867.56;5017760;28;20563;-73
2022/10/08 02:09:30;;;;;;;14.50;7.20;;;;;;;5.73;100.00;100866.69;5020138;28;20196;-73
2022/10/08 02:11:57;;;;;;;8.23;6.10;;;;;;;5.64;100.00;100861.53;5017041;28;20684;-73
2022/10/08 02:14:27;;;;;;;9.10;6.27;;;;;;;5.60;100.00;100865.00;5022438;28;20547;-73
2022/10/08 02:17:01;;;;;;;14.37;6.80;;;;;;;5.75;100.00;100859.81;5019241;28;20539;-73
2022/10/08 02:19:36;;;;;;;10.17;6.53;;;;;;;5.65;100.00;100852.94;5017940;28;20211;-73
2022/10/08 02:22:06;;;;;;;9.20;6.20;;;;;;;5.57;100.00;100850.34;5033132;23;20228;-72
2022/10/08 02:24:38;;;;;;;9.90;6.63;;;;;;;5.60;100.00;100847.75;4975270;28;20308;-72
2022/10/08 02:27:08;;;;;;;9.57;6.73;;;;;;;5.65;100.00;100845.16;4995313;28;20205;-72
2022/10/08 02:29:41;;;;;;;13.77;6.87;;;;;;;5.60;100.00;100852.06;4984245;28;20210;-72
2022/10/08 02:32:12;;;;;;;8.33;6.10;;;;;;;5.64;100.00;100846.88;4964408;28;20205;-72
2022/10/08 02:34:44;;;;;;;9.97;6.13;;;;;;;5.69;100.00;100847.72;4981489;28;20329;-72
2022/10/08 02:37:17;;;;;;;9.27;5.97;;;;;;;5.73;100.00;100845.97;4977515;28;20216;-72
2022/10/08 02:39:50;;;;;;;11.87;6.63;;;;;;;5.74;100.00;100852.88;4990031;28;20217;-72
2022/10/08 02:42:20;;;;;;;11.70;6.40;;;;;;;5.66;100.00;100852.94;4994938;28;20244;-72
2022/10/08 02:44:51;;;;;;;10.00;5.77;;;;;;;5.75;100.00;100854.63;4976788;28;20221;-72
2022/10/08 02:47:24;;;;;;;10.80;5.73;;;;;;;5.82;100.00;100853.75;4994696;28;20204;-72
2022/10/08 02:49:55;;;;;;;8.33;6.17;;;;;;;5.82;100.00;100847.69;4995106;28;20217;-72
2022/10/08 02:52:26;;;;;;;13.43;6.77;;;;;;;5.87;100.00;100853.72;4976924;28;20207;-73
2022/10/08 02:54:54;;;;;;;8.70;5.87;;;;;;;5.87;100.00;100851.13;4990117;28;20700;-73
2022/10/08 02:57:26;;;;;;;7.53;6.07;;;;;;;5.95;100.00;100843.34;4980226;28;20237;-73
2022/10/08 02:59:54;;;;;;;11.30;6.77;;;;;;;5.93;100.00;100843.34;5001438;28;20647;-72
2022/10/08 03:02:28;;;;;;;12.23;6.30;;;;;;;5.90;100.00;100845.94;4975386;28;20206;-73
2022/10/08 03:05:00;;;;;;;11.73;6.07;;;;;;;5.95;100.00;100840.75;4964787;28;20227;-73
2022/10/08 03:07:31;;;;;;;10.43;6.20;;;;;;;5.99;100.00;100840.75;4976069;28;20205;-73
2022/10/08 03:10:00;;;;;;;12.27;6.37;;;;;;;6.01;100.00;100838.16;4984284;28;20232;-73
2022/10/08 03:12:30;;;;;;;8.47;6.57;;;;;;;6.09;100.00;100845.94;4993546;28;20208;-73
2022/10/08 03:14:58;;;;;;;10.30;6.50;;;;;;;6.06;100.00;100833.84;4994007;28;20670;-73
2022/10/08 03:17:29;;;;;;;10.30;6.50;;;;;;;6.04;100.00;100833.84;4976795;28;20210;-73
2022/10/08 03:19:56;;;;;;;8.40;5.67;;;;;;;6.03;100.00;100839.03;4993671;28;20228;-73
2022/10/08 03:22:23;;;;;;;9.53;6.50;;;;;;;6.06;100.00;100837.28;4992065;28;20205;-73
2022/10/08 03:24:50;;;;;;;10.77;5.60;;;;;;;6.08;100.00;100839.88;4993144;28;20225;-73
2022/10/08 03:27:16;;;;;;;10.57;6.73;;;;;;;6.05;100.00;100842.47;4993658;28;20197;-73
2022/10/08 03:29:43;;;;;;;8.67;5.70;;;;;;;6.09;100.00;100849.38;4992031;28;20231;-73
2022/10/08 03:32:11;;;;;;;8.27;5.93;;;;;;;6.15;100.00;100857.09;4993806;28;20239;-73
2022/10/08 03:34:38;;;;;;;13.40;6.67;;;;;;;6.12;100.00;100851.06;4971876;28;20190;-73
2022/10/08 03:37:04;;;;;;;10.73;6.43;;;;;;;6.03;100.00;100855.44;4988877;28;20198;-72
2022/10/08 03:39:31;;;;;;;9.90;5.63;;;;;;;6.09;100.00;100844.19;4995740;28;20221;-72
2022/10/08 03:41:57;;;;;;;8.63;6.37;;;;;;;6.00;100.00;100850.25;4991951;28;20570;-73
2022/10/08 03:44:24;;;;;;;10.00;5.83;;;;;;;6.06;100.00;100857.13;4993984;28;20713;-73
2022/10/08 03:46:50;;;;;;;7.90;5.87;;;;;;;6.16;100.00;100840.69;4992420;28;20206;-72
2022/10/08 03:49:18;;;;;;;10.03;5.77;;;;;;;6.11;100.00;100833.84;4991477;28;20225;-72
2022/10/08 03:51:44;;;;;;;10.97;5.80;;;;;;;6.19;100.00;100842.41;4996206;28;20209;-72
2022/10/08 03:54:11;;;;;;;8.90;5.50;;;;;;;6.21;100.00;100838.94;4991902;28;20205;-72
2022/10/08 03:56:37;;;;;;;9.73;6.73;;;;;;;6.20;100.00;100842.41;4990328;28;20221;-72
2022/10/08 03:59:04;;;;;;;12.63;6.53;;;;;;;6.16;100.00;100845.88;4991505;28;20233;-73
2022/10/08 04:01:30;;;;;;;11.33;6.90;;;;;;;6.20;100.00;100844.13;4991668;28;20574;-72
2022/10/08 04:03:57;;;;;;;9.60;6.33;;;;;;;6.32;100.00;100846.66;4987873;28;20570;-72
2022/10/08 04:06:25;;;;;;;8.13;5.57;;;;;;;6.38;100.00;100844.03;4991810;28;20229;-72
2022/10/08 04:08:52;;;;;;;10.20;5.93;;;;;;;6.42;100.00;100844.88;4992298;28;20213;-72
2022/10/08 04:11:19;;;;;;;7.80;5.60;;;;;;;6.34;100.00;100844.91;4993991;28;20226;-73
2022/10/08 04:13:46;;;;;;;8.80;6.33;;;;;;;6.35;100.00;100840.59;4993364;28;20256;-73
2022/10/08 04:16:15;;;;;;;8.77;6.03;;;;;;;6.33;100.00;100848.41;4995719;28;20201;-72
2022/10/08 04:18:42;;;;;;;12.30;6.20;;;;;;;6.39;100.00;100850.09;4992841;28;20221;-73
2022/10/08 04:21:11;;;;;;;8.33;5.77;;;;;;;6.33;100.00;100856.16;4989522;28;20656;-73
2022/10/08 04:23:40;;;;;;;9.63;6.33;;;;;;;6.38;100.00;100851.78;4987190;28;20565;-73
2022/10/08 04:26:08;;;;;;;8.63;5.87;;;;;;;6.44;100.00;100845.75;4974022;28;20215;-73
2022/10/08 04:28:35;;;;;;;8.67;6.07;;;;;;;6.45;100.00;100842.28;4962364;28;20195;-73
2022/10/08 04:31:04;;;;;;;9.83;6.83;;;;;;;6.50;100.00;100839.66;4973956;28;20266;-73
2022/10/08 04:33:33;;;;;;;11.97;5.60;;;;;;;6.51;100.00;100838.78;4956743;28;20671;-74
2022/10/08 04:36:00;;;;;;;10.37;6.70;;;;;;;6.49;100.00;100841.41;4974215;28;20208;-73
2022/10/08 04:38:27;;;;;;;8.23;5.60;;;;;;;6.50;100.00;100835.34;4972464;28;20224;-73
2022/10/08 04:41:03;;;;;;;8.07;5.97;;;;;;;6.51;100.00;100829.31;4971720;28;20203;-73
2022/10/08 04:43:30;;;;;;;8.37;6.07;;;;;;;6.55;100.00;100830.13;4985803;28;20265;-73
2022/10/08 04:45:57;;;;;;;8.10;6.20;;;;;;;6.57;100.00;100834.44;4962035;28;20210;-73
2022/10/08 04:48:24;;;;;;;8.53;5.90;;;;;;;6.60;100.00;100829.22;4976843;28;20198;-73
2022/10/08 04:50:54;;;;;;;9.10;6.10;;;;;;;6.66;100.00;100832.66;4969447;28;20199;-73
2022/10/08 04:53:21;;;;;;;9.43;5.90;;;;;;;6.72;100.00;100832.59;4957650;28;20612;-73
2022/10/08 04:55:47;;;;;;;8.37;6.30;;;;;;;6.76;100.00;100835.16;4971577;28;20212;-73
2022/10/08 04:58:15;;;;;;;6.13;5.10;;;;;;;6.81;100.00;100830.81;4960859;28;20187;-73
2022/10/08 05:00:42;;;;;;;9.33;5.93;;;;;;;6.81;100.00;100829.97;4974198;28;20206;-73
2022/10/08 05:03:08;;;;;;;8.77;5.87;;;;;;;6.86;100.00;100832.50;4955772;28;20745;-73
2022/10/08 05:05:38;;;;;;;8.47;6.17;;;;;;;6.90;100.00;100840.25;4952477;28;20581;-72
2022/10/08 05:08:05;;;;;;;9.20;6.30;;;;;;;6.93;100.00;100840.25;4972492;28;20251;-72
2022/10/08 05:10:31;;;;;;;12.73;7.60;;;;;;;6.97;100.00;100844.53;4973090;28;20216;-72
2022/10/08 05:12:58;;;;;;;9.30;6.10;;;;;;;6.96;100.00;100836.75;4971249;28;20267;-72
2022/10/08 05:15:28;;;;;;;9.23;6.20;;;;;;;6.95;100.00;100837.63;4973092;28;20196;-72
2022/10/08 05:17:55;;;;;;;9.20;6.70;;;;;;;6.98;100.00;100835.88;4955358;28;20208;-72
2022/10/08 05:20:22;;;;;;;9.33;6.63;;;;;;;7.05;100.00;100839.25;4954961;28;20246;-71
2022/10/08 05:22:48;;;;;;;9.70;5.73;;;;;;;7.09;100.00;100850.47;4977254;28;20238;-72
2022/10/08 05:25:15;;;;;;;8.93;6.40;;;;;;;7.14;100.00;100839.22;4992383;28;20704;-72
2022/10/08 05:27:41;;;;;;;11.63;6.47;;;;;;;7.17;100.00;100838.31;4991303;28;20270;-72
2022/10/08 05:30:09;;;;;;;9.70;5.73;;;;;;;7.18;100.00;100833.13;4991778;28;20231;-72
2022/10/08 05:32:37;;;;;;;11.00;6.20;;;;;;;7.16;100.00;100834.00;4995491;28;20223;-72
2022/10/08 05:35:03;;;;;;;9.17;6.63;;;;;;;7.19;100.00;100836.56;4995002;28;20197;-71
2022/10/08 05:37:30;;;;;;;8.80;5.97;;;;;;;7.21;100.00;100840.00;4992022;28;20438;-73
2022/10/08 05:39:56;;;;;;;12.70;6.57;;;;;;;7.21;100.00;100845.19;4994654;28;20231;-72
2022/10/08 05:42:23;;;;;;;9.70;6.10;;;;;;;7.24;100.00;100839.13;4994412;28;20198;-72
2022/10/08 05:44:49;;;;;;;11.83;6.77;;;;;;;7.26;100.00;100838.22;4994647;28;20288;-72
2022/10/08 05:47:16;;;;;;;11.50;6.40;;;;;;;7.33;100.00;100839.88;4975429;28;20204;-72
2022/10/08 05:49:43;;;;;;;7.67;5.97;;;;;;;7.38;100.00;100837.25;4975028;28;20245;-72
2022/10/08 05:52:10;;;;;;;11.77;6.80;;;;;;;7.46;100.00;100835.47;4990877;28;20201;-71
2022/10/08 05:54:36;;;;;;;7.40;5.60;;;;;;;7.54;100.00;100843.16;4993204;28;20203;-72
2022/10/08 05:57:02;;;;;;;13.40;6.67;;;;;;;7.58;100.00;100840.53;4994156;28;20575;-72
2022/10/08 05:59:29;;;;;;;7.87;6.30;;;;;;;7.64;100.00;100851.72;4975253;28;20227;-72
2022/10/08 06:01:55;;;;;;;9.17;6.47;;;;;;;7.69;100.00;100843.00;4973690;28;20582;-72
2022/10/08 06:04:22;;;;;;;11.80;6.77;;;;;;;7.76;100.00;100849.84;4991845;28;20228;-72
2022/10/08 06:06:49;;;;;;;13.13;7.30;;;;;;;7.85;100.00;100848.03;4982720;28;20215;-72
2022/10/08 06:09:18;;;;;;;12.80;7.43;;;;;;;7.95;100.00;100831.47;4992497;28;20213;-72
2022/10/08 06:11:45;;;;;;;11.47;7.10;;;;;;;8.05;100.00;100834.78;4972325;28;20681;-72
2022/10/08 06:14:13;;;;;;;11.17;7.30;;;;;;;8.17;100.00;100837.25;4995363;28;20200;-72
2022/10/08 06:16:40;;;;;;;11.00;7.10;;;;;;;8.32;100.00;100844.00;4984757;28;20198;-72
2022/10/08 06:19:08;;;;;;;10.83;7.63;;;;;;;8.45;100.00;100850.75;4990034;28;20218;-73
2022/10/08 06:21:35;;;;;;;10.33;7.70;;;;;;;8.59;100.00;100847.97;4989607;28;20285;-73
2022/10/08 06:24:06;;;;;;;9.87;6.77;;;;;;;8.69;100.00;100851.31;4992420;28;20214;-72
2022/10/08 06:26:35;;;;;;;15.33;7.70;;;;;;;8.80;100.00;100859.78;4972939;28;20225;-73
2022/10/08 06:29:04;;;;;;;11.73;7.47;;;;;;;8.90;100.00;100863.97;4971829;28;20228;-73
2022/10/08 06:31:30;;;;;;;14.57;7.70;;;;;;;9.05;100.00;100868.06;4974133;28;20605;-73
2022/10/08 06:33:57;;;;;;;13.87;7.70;;;;;;;9.14;100.00;100874.84;4990341;28;20202;-73
2022/10/08 06:36:26;;;;;;;9.23;7.30;;;;;;;9.26;100.00;100876.41;4984979;28;20228;-72
2022/10/08 06:38:54;;;;;;;13.07;7.40;;;;;;;9.45;100.00;100883.00;4983366;28;20216;-72
2022/10/08 06:41:22;;;;;;;14.70;7.67;;;;;;;9.59;100.00;100874.97;4989072;28;20211;-73
2022/10/08 06:43:49;;;;;;;12.57;7.07;;;;;;;9.77;100.00;100889.38;4974561;28;20208;-72
2022/10/08 06:46:16;;;;;;;10.53;7.70;;;;;;;9.84;100.00;100901.41;4985580;28;20218;-73
2022/10/08 06:48:43;;;;;;;10.23;7.10;;;;;;;9.92;100.00;100893.47;4986461;28;20257;-73
2022/10/08 06:51:12;;;;;;;10.30;7.37;;;;;;;9.97;100.00;100891.63;4967857;28;20356;-72
2022/10/08 06:53:40;;;;;;;12.60;7.73;;;;;;;10.02;100.00;100892.38;4970225;28;20574;-72
2022/10/08 06:56:09;;;;;;;14.70;7.83;;;;;;;10.07;100.00;100888.84;4989634;28;20204;-73
2022/10/08 06:58:38;;;;;;;11.43;7.67;;;;;;;10.09;100.00;100902.69;4974179;28;20240;-73
2022/10/08 07:01:06;;;;;;;10.30;7.80;;;;;;;10.11;100.00;100906.13;4969736;28;20582;-72
2022/10/08 07:03:33;;;;;;;11.73;7.73;;;;;;;10.13;100.00;100901.72;4969831;28;20559;-73
2022/10/08 07:06:00;;;;;;;13.17;8.77;;;;;;;10.19;100.00;100901.63;4971805;28;20217;-73
2022/10/08 07:08:27;;;;;;;14.10;8.47;;;;;;;10.24;100.00;100902.38;4966704;28;20221;-73
2022/10/08 07:10:54;;;;;;;14.23;8.30;;;;;;;10.33;100.00;100910.03;4954106;28;20217;-73
2022/10/08 07:13:20;;;;;;;11.53;7.50;;;;;;;10.41;100.00;100909.88;4969239;28;20206;-73
2022/10/08 07:15:48;;;;;;;13.70;7.80;;;;;;;10.47;100.00;100909.75;4971859;28;20681;-73
2022/10/08 07:18:15;;;;;;;15.07;7.97;;;;;;;10.58;100.00;100917.34;4963859;28;20203;-72
2022/10/08 07:20:41;;;;;;;12.43;8.07;;;;;;;10.63;100.00;100917.25;4969541;28;20233;-73
2022/10/08 07:23:07;;;;;;;11.17;7.73;;;;;;;10.70;100.00;100918.84;4964051;28;20267;-73
2022/10/08 07:25:34;;;;;;;16.70;8.40;;;;;;;10.76;100.00;100908.25;4970697;28;20224;-73
2022/10/08 07:28:00;;;;;;;16.00;9.03;;;;;;;10.82;100.00;100907.25;4969107;28;20201;-73
2022/10/08 07:30:27;;;;;;;13.83;8.50;;;;;;;10.88;100.00;100905.38;4952334;28;20241;-72
2022/10/08 07:32:59;;;;;;;12.63;8.03;;;;;;;10.96;100.00;100908.66;4964451;28;20338;-72
2022/10/08 07:35:25;;;;;;;13.17;8.33;;;;;;;11.06;100.00;100911.91;4973406;28;20298;-73
2022/10/08 07:37:51;;;;;;;17.67;8.83;;;;;;;11.13;100.00;100910.91;4948176;28;20214;-72
2022/10/08 07:40:18;;;;;;;11.63;8.40;;;;;;;11.18;100.00;100915.97;4967796;28;20225;-72
2022/10/08 07:42:44;;;;;;;13.60;8.83;;;;;;;11.21;100.00;100908.09;4962152;28;20673;-72
2022/10/08 07:45:11;;;;;;;11.57;7.90;;;;;;;11.25;100.00;100895.81;4967695;28;20205;-72
2022/10/08 07:47:37;;;;;;;11.60;7.70;;;;;;;11.25;100.00;100904.50;4965896;28;20682;-72
2022/10/08 07:50:05;;;;;;;12.90;8.03;;;;;;;11.27;100.00;100907.06;4964804;28;20231;-72
2022/10/08 07:52:32;;;;;;;13.00;7.47;;;;;;;11.28;100.00;100914.03;4963043;28;20267;-72
2022/10/08 07:54:58;;;;;;;12.67;7.40;;;;;;;11.30;100.00;100914.84;4963663;28;20194;-72
2022/10/08 07:57:25;;;;;;;9.73;6.57;;;;;;;11.32;100.00;100913.91;4949346;28;20546;-71
2022/10/08 07:59:52;;;;;;;12.97;6.70;;;;;;;11.35;100.00;100918.19;4949272;28;20325;-72
2022/10/08 08:02:18;;;;;;;9.33;6.20;;;;;;;11.41;100.00;100917.19;4970260;28;20212;-72
2022/10/08 08:04:44;;;;;;;10.33;5.97;;;;;;;11.46;100.00;100905.72;4970344;28;20205;-72
2022/10/08 08:07:12;;;;;;;9.50;6.20;;;;;;;11.54;100.00;100908.16;4971643;28;20220;-71
2022/10/08 08:09:39;;;;;;;11.63;6.67;;;;;;;11.58;100.00;100912.41;4977751;23;20223;-72
2022/10/08 08:12:05;;;;;;;10.97;6.57;;;;;;;11.70;100.00;100919.06;5029907;28;20203;-72
2022/10/08 08:14:32;;;;;;;10.80;6.50;;;;;;;11.81;100.00;100927.47;5029726;28;20208;-72
2022/10/08 08:17:00;;;;;;;8.93;6.63;;;;;;;11.91;100.00;100918.50;5033785;28;20242;-72
2022/10/08 08:19:27;;;;;;;11.27;6.63;;;;;;;12.02;100.00;100910.38;5028896;28;20216;-78
2022/10/08 08:21:53;;;;;;;8.43;6.07;;;;;;;12.19;100.00;100916.88;5030574;28;20199;-76
2022/10/08 08:24:21;;;;;;;10.13;6.70;;;;;;;12.36;100.00;100919.88;5015749;28;20196;-76
2022/10/08 08:26:47;;;;;;;9.50;6.43;;;;;;;12.52;100.00;100922.91;5015316;28;20229;-76
2022/10/08 08:29:16;;;;;;;10.07;6.30;;;;;;;12.68;100.00;100920.69;5012706;28;20196;-76
2022/10/08 08:31:43;;;;;;;10.67;6.83;;;;;;;12.84;100.00;100924.56;5037654;28;20208;-76
2022/10/08 08:34:12;;;;;;;8.97;6.37;;;;;;;12.91;100.00;100935.72;5033129;28;20192;-74
2022/10/08 08:36:39;;;;;;;9.70;6.07;;;;;;;12.99;100.00;100936.31;5015989;28;20205;-75
2022/10/08 08:39:07;;;;;;;8.00;5.43;;;;;;;13.06;100.00;100927.34;5017331;28;20203;-75
2022/10/08 08:41:49;;;;;;;9.23;5.20;;;;;;;13.19;100.00;100937.44;5017996;28;20198;-75
2022/10/08 08:44:19;;;;;;;7.33;4.80;;;;;;;13.26;100.00;100942.44;5014534;28;20210;-73
2022/10/08 08:46:52;;;;;;;7.23;4.63;;;;;;;13.41;100.00;100940.25;5014579;28;20336;-73
2022/10/08 08:49:24;;;;;;;8.23;4.47;;;;;;;13.46;100.00;100955.84;5028583;28;20198;-74
2022/10/08 08:51:52;;;;;;;7.87;4.57;;;;;;;13.46;100.00;100951.44;5024882;28;20220;-73
2022/10/08 08:54:19;;;;;;;4.27;3.53;;;;;;;13.41;100.00;100964.69;5026219;28;20670;-74
2022/10/08 08:56:47;;;;;;;6.37;4.03;;;;;;;13.36;100.00;100950.88;5025428;28;20285;-73
2022/10/08 08:59:24;;;;;;;4.93;3.57;;;;;;;13.25;100.00;100950.34;5026157;28;20303;-73
2022/10/08 09:01:53;;;;;;;5.13;3.50;;;;;;;13.20;100.00;100947.88;5023841;28;20214;-75
2022/10/08 09:04:25;;;;;;;4.73;3.50;;;;;;;13.18;100.00;100941.81;5023882;28;20552;-73
2022/10/08 09:06:53;;;;;;;5.53;3.40;;;;;;;13.19;100.00;100942.66;5023076;28;20223;-73
2022/10/08 09:09:25;;;;;;;4.37;3.00;;;;;;;13.16;100.00;100954.09;5023592;28;20198;-74
2022/10/08 09:11:54;;;;;;;5.10;3.53;;;;;;;13.15;100.00;100964.63;5025088;28;20278;-72
2022/10/08 09:14:36;;;;;;;6.00;3.40;;;;;;;13.14;100.00;100976.88;5023912;28;20215;-73
2022/10/08 09:17:14;;;;;;;7.03;3.37;;;;;;;13.13;100.00;100967.28;5024367;28;20664;-76
2022/10/08 09:19:40;;;;;;;4.50;3.00;;;;;;;13.14;100.00;100960.28;5023086;28;20575;-73
2022/10/08 09:22:19;;;;;;;4.43;3.20;;;;;;;13.10;100.00;100970.00;5022751;28;20253;-73
2022/10/08 09:24:47;;;;;;;7.70;3.30;;;;;;;13.15;100.00;100967.25;5024108;28;20663;-74
2022/10/08 09:27:15;;;;;;;5.07;3.20;;;;;;;13.15;100.00;100972.47;5023262;28;20207;-75
2022/10/08 09:29:42;;;;;;;5.77;3.70;;;;;;;13.18;100.00;100982.88;5030859;28;20228;-74
2022/10/08 09:32:15;;;;;;;6.40;3.33;;;;;;;13.23;100.00;100983.59;5025574;28;20196;-73
2022/10/08 09:34:42;;;;;;;3.63;3.17;;;;;;;13.26;100.00;100986.97;5023231;28;20214;-76
2022/10/08 09:37:19;;;;;;;6.37;3.30;;;;;;;13.19;100.00;100984.56;5033153;28;20611;-73
2022/10/08 09:40:16;;;;;;;5.83;3.00;;;;;;;13.18;100.00;100985.47;5027504;28;20297;-75
2022/10/08 09:42:42;;;;;;;5.07;3.17;;;;;;;13.23;100.00;100983.59;5025240;28;20575;-75
2022/10/08 09:45:32;;;;;;;4.70;3.20;;;;;;;13.34;100.00;100988.50;5023175;28;20756;-74
2022/10/08 09:48:16;;;;;;;8.27;3.10;;;;;;;13.39;100.00;100989.22;5006747;28;20693;-75
2022/10/08 09:50:49;;;;;;;7.13;3.10;;;;;;;13.43;100.00;100993.44;5029520;28;20231;-72
2022/10/08 09:53:15;;;;;;;5.33;2.73;;;;;;;13.44;100.00;101000.41;5025207;28;20206;-74
2022/10/08 09:55:51;;;;;;;6.77;3.00;;;;;;;13.50;100.00;100994.09;5030417;28;20206;-74
2022/10/08 09:58:19;;;;;;;3.10;2.60;;;;;;;13.64;100.00;101000.59;5004323;28;20206;-74
2022/10/08 10:00:56;;;;;;;6.73;3.20;;;;;;;13.79;100.00;100991.38;5021398;28;20249;-75
2022/10/08 10:03:24;;;;;;;4.27;2.77;;;;;;;13.96;100.00;100998.66;5025923;28;20200;-74
2022/10/08 10:05:52;;;;;;;4.43;3.23;;;;;;;14.05;100.00;101002.72;5024955;28;20215;-74
2022/10/08 10:08:45;;;;;;;4.03;2.60;;;;;;;14.19;100.00;101008.38;5027130;28;20710;-76
2022/10/08 10:11:19;;;;;;;4.40;2.50;;;;;;;14.26;100.00;101002.91;5024280;28;20633;-75
2022/10/08 10:13:49;;;;;;;5.00;2.43;;;;;;;14.38;100.00;100997.22;5018909;28;20585;-74
2022/10/08 10:16:20;;;;;;;9.43;3.00;;;;;;;14.37;100.00;100998.97;5022907;28;20667;-74
2022/10/08 10:18:52;;;;;;;6.07;2.43;;;;;;;14.37;100.00;101003.34;5022276;28;20211;-74
2022/10/08 10:21:23;;;;;;;3.07;2.30;;;;;;;14.36;100.00;101001.66;5002840;28;20224;-74
2022/10/08 10:24:03;;;;;;;6.63;2.40;;;;;;;14.46;100.00;101005.66;5027014;28;20203;-74
2022/10/08 10:26:34;;;;;;;5.97;2.30;;;;;;;14.45;100.00;100998.69;5007375;28;20306;-73
2022/10/08 10:29:07;;;;;;;4.57;2.30;;;;;;;14.50;100.00;100993.28;5028113;28;20575;-75
2022/10/08 10:31:38;;;;;;;3.57;2.03;;;;;;;14.42;100.00;101000.56;5029650;28;20508;-73
2022/10/08 10:34:11;;;;;;;4.83;2.53;;;;;;;14.42;100.00;100988.31;4999093;28;20196;-74
2022/10/08 10:36:43;;;;;;;5.53;2.67;;;;;;;14.47;100.00;100990.78;5014576;28;20539;-75
2022/10/08 10:39:17;;;;;;;4.90;2.10;;;;;;;14.52;100.00;100994.94;5028795;28;20255;-74
2022/10/08 10:41:49;;;;;;;4.23;2.40;;;;;;;14.75;100.00;100996.72;5027711;28;20210;-75
2022/10/08 10:44:22;;;;;;;3.67;2.00;;;;;;;14.90;100.00;100999.72;5029262;28;20407;-76
2022/10/08 10:46:52;;;;;;;4.27;1.87;;;;;;;15.00;100.00;100998.41;5017348;28;20222;-74
2022/10/08 10:49:22;;;;;;;5.40;2.30;;;;;;;15.01;100.00;101000.16;5013613;28;20679;-75
2022/10/08 10:52:00;;;;;;;4.93;1.90;;;;;;;15.08;100.00;101009.50;5028821;28;20231;-74
2022/10/08 10:54:42;;;;;;;1.33;0.90;;;;;;;14.94;100.00;101022.31;5028278;28;20199;-75
2022/10/08 10:57:19;;;;;;;3.20;1.20;;;;;;;14.91;100.00;101017.16;5026085;28;20207;-73
2022/10/08 10:59:57;;;;;;;1.03;0.80;;;;;;;14.96;100.00;101021.31;5009777;28;20216;-75
2022/10/08 11:02:30;;;;;;;1.57;1.13;;;;;;;14.97;100.00;101014.31;5028880;28;20573;-75
2022/10/08 11:05:07;;;;;;;2.37;1.00;;;;;;;15.04;100.00;101002.66;5012640;28;20203;-74
2022/10/08 11:08:05;;;;;;;1.23;0.80;;;;;;;15.18;100.00;101014.38;5028659;28;20211;-75
2022/10/08 11:10:44;;;;;;;1.93;1.03;;;;;;;15.30;100.00;101019.16;5013831;28;20322;-74
2022/10/08 11:13:27;;;;;;;0.93;0.77;;;;;;;15.34;100.00;101005.84;5032295;28;20205;-75
2022/10/08 11:16:01;;;;;;;2.63;0.90;;;;;;;15.40;100.00;100999.47;5020958;28;20225;-75
2022/10/08 11:18:35;;;;;;;1.67;1.20;;;;;;;15.44;100.00;100998.47;5029972;28;20208;-73
2022/10/08 11:21:14;;;;;;;3.23;1.17;;;;;;;15.51;100.00;101006.94;5010124;28;20223;-74
2022/10/08 11:24:03;;;;;;;1.53;0.80;;;;;;;15.44;100.00;101001.09;5028754;28;20238;-73
2022/10/08 11:26:37;;;;;;;1.33;0.83;;;;;;;15.50;100.00;101008.72;5028276;28;20196;-73
2022/10/08 11:29:16;;;;;;;1.80;1.00;;;;;;;15.51;100.00;101002.56;5026201;28;20224;-75
2022/10/08 11:31:47;;;;;;;1.50;0.80;;;;;;;15.55;100.00;100999.78;5021440;28;20207;-74